createdAt,value
2019-06-27T00:02:42.446Z,100161.38
2019-06-27T00:05:47.672Z,100160.11
2019-06-27T00:08:52.844Z,100157.64
2019-06-27T00:11:58.123Z,100165.65
2019-06-27T00:15:03.344Z,100163.54
2019-06-27T00:18:08.600Z,100168.01
2019-06-27T00:21:13.824Z,100165.36
2019-06-27T00:24:18.998Z,100170.41
2019-06-27T00:27:24.244Z,100165.00
2019-06-27T00:30:29.455Z,100162.78
2019-06-27T00:33:34.645Z,100165.87
2019-06-27T00:36:39.823Z,100171.59
2019-06-27T00:39:44.969Z,100174.34
2019-06-27T00:42:50.135Z,100172.19
2019-06-27T00:45:55.332Z,100182.77
2019-06-27T00:49:00.522Z,100174.75
2019-06-27T00:52:05.698Z,100188.50
2019-06-27T00:55:10.906Z,100182.09
2019-06-27T00:58:16.156Z,100175.19
2019-06-27T01:01:21.354Z,100187.33
2019-06-27T01:04:26.525Z,100181.35
2019-06-27T01:07:31.725Z,100184.92
2019-06-27T01:10:36.927Z,100182.93
2019-06-27T01:13:42.208Z,100183.45
2019-06-27T01:16:47.338Z,100187.48
2019-06-27T01:19:52.578Z,100189.14
2019-06-27T01:22:57.825Z,100197.42
2019-06-27T01:26:03.012Z,100192.70
2019-06-27T01:29:08.243Z,100195.63
2019-06-27T01:32:13.435Z,100194.05
2019-06-27T01:35:18.715Z,100191.67
2019-06-27T01:38:23.949Z,100194.82
2019-06-27T01:41:29.167Z,100197.02
2019-06-27T01:44:43.058Z,100194.89
2019-06-27T01:47:48.238Z,100198.81
2019-06-27T01:50:53.441Z,100199.42
2019-06-27T01:53:58.666Z,100203.90
2019-06-27T01:57:03.818Z,100207.26
2019-06-27T02:00:10.540Z,100200.43
2019-06-27T02:03:15.801Z,100204.88
2019-06-27T02:06:21.015Z,100207.34
2019-06-27T02:09:26.209Z,100214.77
2019-06-27T02:12:31.485Z,100205.74
2019-06-27T02:15:36.685Z,100211.78
2019-06-27T02:18:41.848Z,100206.31
2019-06-27T02:21:47.095Z,100214.86
2019-06-27T02:24:52.328Z,100218.42
2019-06-27T02:28:03.761Z,100209.92
2019-06-27T02:31:04.653Z,100218.76
2019-06-27T02:34:09.773Z,100222.80
2019-06-27T02:37:14.999Z,100227.81
2019-06-27T02:40:20.224Z,100223.95
2019-06-27T02:43:25.426Z,100232.70
2019-06-27T02:46:30.586Z,100230.28
2019-06-27T02:49:35.751Z,100228.98
2019-06-27T02:52:40.937Z,100227.32
2019-06-27T02:55:46.081Z,100228.70
2019-06-27T02:58:51.261Z,100226.52
2019-06-27T03:01:56.507Z,100227.09
2019-06-27T03:05:01.736Z,100232.31
2019-06-27T03:08:08.032Z,100236.14
2019-06-27T03:11:13.240Z,100233.69
2019-06-27T03:14:18.426Z,100229.83
2019-06-27T03:17:23.649Z,100244.08
2019-06-27T03:20:28.816Z,100243.23
2019-06-27T03:23:33.981Z,100238.23
2019-06-27T03:26:39.155Z,100233.31
2019-06-27T03:29:44.355Z,100234.38
2019-06-27T03:32:49.783Z,100235.37
2019-06-27T03:35:55.115Z,100236.95
2019-06-27T03:39:00.358Z,100242.72
2019-06-27T03:42:05.635Z,100243.23
2019-06-27T03:45:15.355Z,100251.66
2019-06-27T03:48:18.774Z,100249.31
2019-06-27T03:51:23.890Z,100253.77
2019-06-27T03:54:29.062Z,100250.54
2019-06-27T03:57:34.298Z,100246.61
2019-06-27T04:00:39.471Z,100257.96
2019-06-27T04:03:44.721Z,100254.64
2019-06-27T04:06:49.975Z,100256.89
2019-06-27T04:09:55.185Z,100262.01
2019-06-27T04:13:00.364Z,100251.30
2019-06-27T04:16:05.549Z,100256.97
2019-06-27T04:19:10.764Z,100261.42
2019-06-27T04:22:17.527Z,100258.13
2019-06-27T04:25:23.010Z,100252.02
2019-06-27T04:28:28.218Z,100263.88
2019-06-27T04:31:33.413Z,100267.78
2019-06-27T04:34:38.640Z,100266.74
2019-06-27T04:37:43.799Z,100269.62
2019-06-27T04:40:49.017Z,100268.63
2019-06-27T04:43:54.211Z,100270.18
2019-06-27T04:46:59.575Z,100268.59
2019-06-27T04:50:05.082Z,100269.64
2019-06-27T04:53:10.293Z,100274.41
2019-06-27T04:56:15.483Z,100280.90
2019-06-27T04:59:21.625Z,100279.64
2019-06-27T05:02:30.524Z,100284.96
2019-06-27T05:05:33.708Z,100287.72
2019-06-27T05:08:39.068Z,100281.88
2019-06-27T05:11:44.222Z,100287.43
2019-06-27T05:14:49.411Z,100295.27
2019-06-27T05:17:54.572Z,100293.51
2019-06-27T05:20:59.737Z,100287.97
2019-06-27T05:24:04.941Z,100287.90
2019-06-27T05:27:10.082Z,100297.19
2019-06-27T05:30:15.426Z,100291.97
2019-06-27T05:33:20.620Z,100282.56
2019-06-27T05:36:25.809Z,100282.42
2019-06-27T05:39:30.991Z,100294.08
2019-06-27T05:42:36.141Z,100299.82
2019-06-27T05:45:41.421Z,100292.97
2019-06-27T05:48:46.611Z,100298.52
2019-06-27T05:51:51.796Z,100296.27
2019-06-27T05:54:56.996Z,100292.36
2019-06-27T05:58:02.326Z,100298.89
2019-06-27T06:01:07.508Z,100298.11
2019-06-27T06:04:12.711Z,100297.99
2019-06-27T06:07:17.844Z,100309.61
2019-06-27T06:10:23.141Z,100305.75
2019-06-27T06:13:28.472Z,100310.63
2019-06-27T06:16:33.672Z,100309.34
2019-06-27T06:19:38.830Z,100303.25
2019-06-27T06:22:44.055Z,100318.55
2019-06-27T06:25:49.264Z,100320.70
2019-06-27T06:28:54.459Z,100327.56
2019-06-27T06:31:59.651Z,100324.58
2019-06-27T06:35:05.059Z,100327.92
2019-06-27T06:38:10.232Z,100326.70
2019-06-27T06:41:15.448Z,100333.45
2019-06-27T06:44:20.557Z,100337.00
2019-06-27T06:47:25.755Z,100340.12
2019-06-27T06:50:30.967Z,100333.11
2019-06-27T06:53:36.201Z,100343.03
2019-06-27T06:56:41.500Z,100340.23
2019-06-27T06:59:46.649Z,100342.23
2019-06-27T07:02:51.830Z,100344.73
2019-06-27T07:05:57.017Z,100349.28
2019-06-27T07:09:02.242Z,100341.64
2019-06-27T07:12:07.548Z,100345.02
2019-06-27T07:15:12.922Z,100357.62
2019-06-27T07:18:18.108Z,100348.84
2019-06-27T07:21:23.220Z,100356.88
2019-06-27T07:24:28.386Z,100353.56
2019-06-27T07:27:33.672Z,100360.73
2019-06-27T07:30:38.922Z,100356.65
2019-06-27T07:33:44.080Z,100362.72
2019-06-27T07:36:49.342Z,100358.13
2019-06-27T07:39:54.562Z,100364.07
2019-06-27T07:42:59.679Z,100349.69
2019-06-27T07:46:04.875Z,100363.66
2019-06-27T07:49:10.066Z,100355.86
2019-06-27T07:52:15.219Z,100357.72
2019-06-27T07:55:23.421Z,100365.14
2019-06-27T07:58:28.672Z,100362.86
2019-06-27T08:01:36.184Z,100363.15
2019-06-27T08:04:41.433Z,100362.43
2019-06-27T08:07:46.615Z,100360.02
2019-06-27T08:10:51.822Z,100364.59
2019-06-27T08:13:57.008Z,100356.50
2019-06-27T08:17:02.200Z,100355.11
2019-06-27T08:20:08.864Z,100354.51
2019-06-27T08:23:14.089Z,100358.31
2019-06-27T08:26:19.236Z,100351.44
2019-06-27T08:29:24.474Z,100352.20
2019-06-27T08:32:29.604Z,100344.06
2019-06-27T08:35:34.829Z,100343.06
2019-06-27T08:38:40.012Z,100349.93
2019-06-27T08:41:45.181Z,100343.88
2019-06-27T08:44:50.379Z,100344.20
2019-06-27T08:47:55.924Z,100347.00
2019-06-27T08:51:01.127Z,100347.97
2019-06-27T08:54:06.353Z,100339.32
2019-06-27T08:57:11.530Z,100348.92
2019-06-27T09:00:17.259Z,100347.84
2019-06-27T09:03:22.423Z,100348.13
2019-06-27T09:06:27.663Z,100350.38
2019-06-27T09:09:32.887Z,100342.75
2019-06-27T09:12:38.115Z,100355.17
2019-06-27T09:15:43.309Z,100353.88
2019-06-27T09:18:48.533Z,100350.13
2019-06-27T09:21:53.765Z,100348.34
2019-06-27T09:24:58.973Z,100353.56
2019-06-27T09:28:04.091Z,100357.15
2019-06-27T09:31:09.277Z,100349.63
2019-06-27T09:34:14.466Z,100352.73
2019-06-27T09:37:19.708Z,100347.85
2019-06-27T09:40:24.942Z,100356.50
2019-06-27T09:43:31.223Z,100354.83
2019-06-27T09:46:36.414Z,100356.80
2019-06-27T09:49:41.591Z,100349.31
2019-06-27T09:52:46.810Z,100360.59
2019-06-27T09:55:52.015Z,100359.91
2019-06-27T09:58:57.155Z,100356.78
2019-06-27T10:02:02.348Z,100353.20
2019-06-27T10:05:08.322Z,100346.02
2019-06-27T10:08:13.545Z,100353.00
2019-06-27T10:11:18.818Z,100356.34
2019-06-27T10:14:24.048Z,100352.48
2019-06-27T10:17:29.297Z,100354.91
2019-06-27T10:20:34.487Z,100350.57
2019-06-27T10:23:39.675Z,100345.65
2019-06-27T10:26:44.869Z,100339.10
2019-06-27T10:29:50.122Z,100341.80
2019-06-27T10:32:59.687Z,100342.13
2019-06-27T10:36:02.631Z,100345.03
2019-06-27T10:39:07.956Z,100339.86
2019-06-27T10:42:13.123Z,100339.78
2019-06-27T10:45:18.747Z,100331.03
2019-06-27T10:48:23.895Z,100325.86
2019-06-27T10:51:29.198Z,100333.91
2019-06-27T10:54:34.482Z,100328.16
2019-06-27T10:57:39.792Z,100321.14
2019-06-27T11:00:45.201Z,100325.15
2019-06-27T11:03:50.534Z,100327.06
2019-06-27T11:06:56.739Z,100321.38
2019-06-27T11:10:02.073Z,100315.37
2019-06-27T11:13:07.182Z,100312.27
2019-06-27T11:16:12.458Z,100319.03
2019-06-27T11:19:17.679Z,100305.05
2019-06-27T11:22:22.901Z,100303.95
2019-06-27T11:25:28.033Z,100313.47
2019-06-27T11:28:33.256Z,100308.06
2019-06-27T11:31:38.443Z,100298.75
2019-06-27T11:34:43.630Z,100296.08
2019-06-27T11:37:48.902Z,100289.45
2019-06-27T11:40:54.434Z,100295.80
2019-06-27T11:43:59.599Z,100288.56
2019-06-27T11:47:04.779Z,100293.93
2019-06-27T11:50:10.783Z,100292.00
2019-06-27T11:53:15.987Z,100285.73
2019-06-27T11:56:21.299Z,100287.77
2019-06-27T11:59:26.447Z,100290.34
2019-06-27T12:02:31.670Z,100276.31
2019-06-27T12:05:37.051Z,100286.36
2019-06-27T12:08:42.189Z,100273.08
2019-06-27T12:11:47.351Z,100281.34
2019-06-27T12:14:52.520Z,100273.23
2019-06-27T12:17:57.795Z,100266.88
2019-06-27T12:21:05.944Z,100268.39
2019-06-27T12:24:09.913Z,100272.70
2019-06-27T12:27:15.117Z,100272.38
2019-06-27T12:30:20.522Z,100265.97
2019-06-27T12:33:25.726Z,100265.66
2019-06-27T12:36:30.940Z,100256.35
2019-06-27T12:39:36.171Z,100269.30
2019-06-27T12:42:41.422Z,100256.98
2019-06-27T12:45:46.681Z,100257.70
2019-06-27T12:48:51.862Z,100256.47
2019-06-27T12:51:57.084Z,100249.34
2019-06-27T12:55:02.338Z,100249.72
2019-06-27T12:58:07.586Z,100250.83
2019-06-27T13:01:12.774Z,100241.72
2019-06-27T13:04:23.274Z,100234.97
2019-06-27T13:07:24.918Z,100241.20
2019-06-27T13:10:35.868Z,100230.09
2019-06-27T13:13:41.396Z,100238.09
2019-06-27T13:16:46.664Z,100236.07
2019-06-27T13:19:51.882Z,100232.77
2019-06-27T13:22:57.077Z,100228.66
2019-06-27T13:26:02.802Z,100220.76
2019-06-27T13:29:08.038Z,100224.47
2019-06-27T13:32:13.209Z,100218.89
2019-06-27T13:35:18.448Z,100215.94
2019-06-27T13:38:23.597Z,100214.48
2019-06-27T13:41:28.848Z,100219.59
2019-06-27T13:44:33.966Z,100210.50
2019-06-27T13:47:39.198Z,100212.12
2019-06-27T13:50:44.415Z,100216.89
2019-06-27T13:53:50.070Z,100217.63
2019-06-27T13:56:55.320Z,100210.50
2019-06-27T14:00:01.659Z,100205.88
2019-06-27T14:03:08.473Z,100203.53
2019-06-27T14:06:13.615Z,100214.69
2019-06-27T14:09:23.500Z,100209.47
2019-06-27T14:12:25.792Z,100199.02
2019-06-27T14:15:31.139Z,100204.03
2019-06-27T14:18:36.398Z,100195.19
2019-06-27T14:21:41.518Z,100190.88
2019-06-27T14:24:46.776Z,100192.98
2019-06-27T14:27:51.983Z,100187.85
2019-06-27T14:30:57.189Z,100175.50
2019-06-27T14:34:02.459Z,100175.66
2019-06-27T14:37:07.701Z,100183.02
2019-06-27T14:40:12.976Z,100178.44
2019-06-27T14:43:18.181Z,100172.16
2019-06-27T14:46:23.395Z,100172.27
2019-06-27T14:49:28.564Z,100168.42
2019-06-27T14:52:37.077Z,100167.48
2019-06-27T14:55:42.388Z,100176.46
2019-06-27T14:58:47.591Z,100172.98
2019-06-27T15:01:52.873Z,100167.53
2019-06-27T15:04:58.027Z,100162.66
2019-06-27T15:08:03.202Z,100169.83
2019-06-27T15:11:08.410Z,100164.05
2019-06-27T15:14:13.629Z,100160.30
2019-06-27T15:17:18.838Z,100167.06
2019-06-27T15:20:23.984Z,100160.32
2019-06-27T15:23:29.365Z,100170.08
2019-06-27T15:26:34.601Z,100166.13
2019-06-27T15:29:39.756Z,100163.94
2019-06-27T15:32:44.938Z,100161.80
2019-06-27T15:35:52.523Z,100156.14
2019-06-27T15:38:57.197Z,100147.50
2019-06-27T15:42:02.355Z,100160.27
2019-06-27T15:45:08.249Z,100152.83
2019-06-27T15:48:13.437Z,100159.79
2019-06-27T15:51:18.612Z,100155.13
2019-06-27T15:54:23.925Z,100161.98
2019-06-27T15:57:29.083Z,100162.36
2019-06-27T16:00:34.244Z,100157.48
2019-06-27T16:03:39.423Z,100163.77
2019-06-27T16:06:44.633Z,100164.89
2019-06-27T16:09:51.063Z,100163.02
2019-06-27T16:13:02.434Z,100162.87
2019-06-27T16:16:06.075Z,100158.72
2019-06-27T16:19:11.264Z,100161.79
2019-06-27T16:22:16.450Z,100154.94
2019-06-27T16:25:21.563Z,100161.88
2019-06-27T16:28:27.384Z,100168.65
2019-06-27T16:31:32.721Z,100161.72
2019-06-27T16:34:37.914Z,100162.08
2019-06-27T16:37:43.108Z,100158.38
2019-06-27T16:40:48.308Z,100163.66
2019-06-27T16:43:53.463Z,100168.70
2019-06-27T16:46:58.768Z,100165.23
2019-06-27T16:50:04.713Z,100161.88
2019-06-27T16:53:09.963Z,100171.84
2019-06-27T16:56:15.158Z,100159.75
2019-06-27T16:59:20.308Z,100166.17
2019-06-27T17:02:25.484Z,100180.59
2019-06-27T17:05:30.646Z,100171.10
2019-06-27T17:08:35.873Z,100177.05
2019-06-27T17:11:41.004Z,100172.32
2019-06-27T17:14:46.153Z,100176.67
2019-06-27T17:17:51.334Z,100171.10
2019-06-27T17:20:56.625Z,100182.56
2019-06-27T17:24:01.954Z,100184.28
2019-06-27T17:27:07.201Z,100177.05
2019-06-27T17:30:15.506Z,100181.86
2019-06-27T17:33:20.766Z,100180.43
2019-06-27T17:36:25.988Z,100173.51
2019-06-27T17:39:31.197Z,100174.23
2019-06-27T17:42:36.329Z,100175.38
2019-06-27T17:45:41.503Z,100170.97
2019-06-27T17:48:46.792Z,100168.20
2019-06-27T17:51:52.055Z,100176.81
2019-06-27T17:54:57.304Z,100165.63
2019-06-27T17:58:02.583Z,100165.02
2019-06-27T18:01:07.747Z,100163.92
2019-06-27T18:04:12.967Z,100154.75
2019-06-27T18:07:18.199Z,100160.52
2019-06-27T18:10:23.401Z,100157.39
2019-06-27T18:13:28.628Z,100153.31
2019-06-27T18:16:33.995Z,100150.93
2019-06-27T18:19:39.193Z,100150.90
2019-06-27T18:22:44.382Z,100156.47
2019-06-27T18:25:49.624Z,100148.06
2019-06-27T18:28:55.918Z,100158.52
2019-06-27T18:32:01.101Z,100160.77
2019-06-27T18:35:06.613Z,100152.39
2019-06-27T18:38:11.843Z,100152.39
2019-06-27T18:41:17.091Z,100144.20
2019-06-27T18:44:22.263Z,100146.15
2019-06-27T18:47:27.531Z,100151.53
2019-06-27T18:50:32.727Z,100148.87
2019-06-27T18:53:38.001Z,100141.47
2019-06-27T18:56:43.246Z,100146.16
2019-06-27T18:59:48.406Z,100150.98
2019-06-27T19:02:53.584Z,100148.95
2019-06-27T19:05:58.745Z,100148.95
2019-06-27T19:09:04.048Z,100151.86
2019-06-27T19:12:09.222Z,100153.95
2019-06-27T19:15:15.473Z,100155.97
2019-06-27T19:18:38.461Z,100157.30
2019-06-27T19:21:53.768Z,100157.38
2019-06-27T19:25:09.177Z,100169.36
2019-06-27T19:28:14.385Z,100166.07
2019-06-27T19:31:19.567Z,100172.81
2019-06-27T19:34:24.852Z,100174.05
2019-06-27T19:37:30.054Z,100178.25
2019-06-27T19:40:35.280Z,100182.55
2019-06-27T19:43:40.467Z,100185.93
2019-06-27T19:46:47.481Z,100189.27
2019-06-27T19:49:52.828Z,100199.81
2019-06-27T19:52:58.197Z,100204.84
2019-06-27T19:56:03.366Z,100214.32
2019-06-27T19:59:08.531Z,100214.39
2019-06-27T20:02:13.746Z,100218.58
2019-06-27T20:05:18.924Z,100220.00
2019-06-27T20:08:24.109Z,100218.11
2019-06-27T20:11:29.344Z,100221.19
2019-06-27T20:14:34.582Z,100231.66
2019-06-27T20:17:39.896Z,100229.47
2019-06-27T20:20:45.077Z,100234.48
2019-06-27T20:23:50.217Z,100241.11
2019-06-27T20:26:55.509Z,100247.75
2019-06-27T20:30:00.705Z,100248.08
2019-06-27T20:33:07.466Z,100250.52
2019-06-27T20:36:12.635Z,100247.69
2019-06-27T20:39:17.912Z,100250.97
2019-06-27T20:42:23.058Z,100261.09
2019-06-27T20:45:28.243Z,100258.88
2019-06-27T20:48:33.465Z,100266.84
2019-06-27T20:51:38.663Z,100270.86
2019-06-27T20:54:43.951Z,100266.75
2019-06-27T20:57:49.165Z,100271.46
2019-06-27T21:00:54.647Z,100272.52
2019-06-27T21:03:59.916Z,100274.38
2019-06-27T21:07:05.080Z,100275.42
2019-06-27T21:10:10.342Z,100274.33
2019-06-27T21:13:15.613Z,100271.88
2019-06-27T21:16:20.823Z,100273.56
2019-06-27T21:19:26.194Z,100278.42
2019-06-27T21:22:31.364Z,100274.74
2019-06-27T21:25:36.518Z,100279.73
2019-06-27T21:28:41.658Z,100281.80
2019-06-27T21:31:46.920Z,100283.42
2019-06-27T21:34:52.162Z,100285.85
2019-06-27T21:37:57.388Z,100284.78
2019-06-27T21:41:02.524Z,100280.36
2019-06-27T21:44:07.747Z,100286.73
2019-06-27T21:47:13.113Z,100287.30
2019-06-27T21:50:18.358Z,100292.21
2019-06-27T21:53:23.593Z,100296.78
2019-06-27T21:56:28.932Z,100291.77
2019-06-27T21:59:34.141Z,100290.53
2019-06-27T22:02:39.243Z,100296.32
2019-06-27T22:05:44.459Z,100287.08
2019-06-27T22:08:49.724Z,100299.41
2019-06-27T22:11:54.881Z,100299.86
2019-06-27T22:15:00.137Z,100290.27
2019-06-27T22:18:05.562Z,100303.72
2019-06-27T22:21:10.704Z,100299.03
2019-06-27T22:24:15.916Z,100308.53
2019-06-27T22:27:21.039Z,100303.81
2019-06-27T22:30:26.270Z,100299.12
2019-06-27T22:33:31.415Z,100290.12
2019-06-27T22:36:36.657Z,100294.80
2019-06-27T22:39:59.289Z,100289.45
2019-06-27T22:43:22.014Z,100289.28
2019-06-27T22:46:45.276Z,100291.42
2019-06-27T22:49:49.875Z,100291.42
2019-06-27T22:53:14.012Z,100285.00
2019-06-27T22:56:19.247Z,100286.63
2019-06-27T22:59:24.445Z,100285.63
2019-06-27T23:02:29.654Z,100289.04
2019-06-27T23:05:34.826Z,100285.07
2019-06-27T23:08:40.014Z,100283.59
2019-06-27T23:11:45.136Z,100276.14
2019-06-27T23:14:50.658Z,100277.30
2019-06-27T23:17:56.083Z,100264.40
2019-06-27T23:21:01.242Z,100273.01
2019-06-27T23:24:06.368Z,100275.41
2019-06-27T23:27:11.561Z,100275.30
2019-06-27T23:30:16.664Z,100273.88
2019-06-27T23:33:21.856Z,100277.53
2019-06-27T23:36:27.091Z,100273.28
2019-06-27T23:39:33.174Z,100272.20
2019-06-27T23:42:38.336Z,100275.67
2019-06-27T23:45:43.487Z,100281.55
2019-06-27T23:48:48.672Z,100275.30
2019-06-27T23:51:53.833Z,100270.98
2019-06-27T23:54:58.968Z,100264.57
2019-06-27T23:58:04.142Z,100266.72
